Weather reports worldwide

Advertisment
Zugspitze, Germany (10961): temperature & dewpoint: 14.08.2019 06:00:00 - 20.08.2019 06:00:00 (CEST)Zugspitze, Germany (10961): wind speed & gusts: 14.08.2019 06:00:00 - 20.08.2019 06:00:00 (CEST)Zugspitze, Germany (10961): wind direction: 14.08.2019 06:00:00 - 20.08.2019 06:00:00 (CEST)Zugspitze, Germany (10961): visibility: 14.08.2019 06:00:00 - 20.08.2019 06:00:00 (CEST)Zugspitze, Germany (10961): sunshine duration: 14.08.2019 06:00:00 - 20.08.2019 06:00:00 (CEST)
Date & Time tt [°C] td [°C] ff [km/h] ff [kn] fx [km/h] fx [kn] dd vv [km] sd [min]
20.08.2019 06:00:00 4,0 1,9 23 13 32 18 W 75 0
20.08.2019 05:00:00 3,6 2,5 25 14 44 24 WSW 75 0
20.08.2019 04:00:00 3,5 3,3 27 15 54 29 WSW 2,3 0
20.08.2019 03:00:00 3,4 3,4 21 11 45 24 W 0,1 0
20.08.2019 02:00:00 3,9 3,9 20 11 46 25 WNW - 0
20.08.2019 01:00:00 4,9 2,7 26 14 41 22 WSW 52 0
20.08.2019 00:00:00 5,3 2,3 19 11 38 21 SSW 75 0
19.08.2019 23:00:00 4,8 2,5 30 16 47 26 SW 75 0
19.08.2019 22:00:00 4,9 2,3 32 18 54 29 WSW 75 0
19.08.2019 21:00:00 4,9 2,6 32 17 46 25 SW 75 0
19.08.2019 20:00:00 5,2 1,9 37 20 88 47 SW 62 0
19.08.2019 19:00:00 6,6 6,6 9 5 31 17 W - 0
19.08.2019 18:00:00 7,3 4,2 26 14 35 19 S 13 50
19.08.2019 17:00:00 6,7 6,1 27 15 36 20 SSE - 51
19.08.2019 16:00:00 7,0 2,9 23 12 39 21 SSW 74 30
19.08.2019 15:00:00 6,3 3,1 24 13 38 20 SW 75 30
19.08.2019 14:00:00 5,9 2,6 24 13 41 22 SW 75 0
19.08.2019 13:00:00 6,1 2,9 22 12 42 23 SW 75 24
19.08.2019 12:00:00 6,0 2,4 29 16 44 24 WSW 72 22
19.08.2019 11:00:00 5,0 2,9 36 19 62 33 WSW 75 0
19.08.2019 10:00:00 2,9 2,6 19 10 45 25 WNW 75 0
19.08.2019 09:00:00 3,1 3,1 18 10 51 28 NNW - 0
19.08.2019 08:00:00 3,9 3,9 29 16 72 39 W - 0
19.08.2019 07:00:00 3,3 3,3 34 18 74 40 WNW 0,1 0
19.08.2019 06:00:00 3,9 3,9 25 14 47 26 WSW - 0
19.08.2019 05:00:00 5,1 5,1 25 13 34 19 SSE - 0
19.08.2019 04:00:00 5,4 5,4 19 10 34 19 ESE - 0
19.08.2019 03:00:00 6,5 6,5 21 11 33 18 S - 0
19.08.2019 02:00:00 7,1 7,0 11 6 22 12 SSW 0,1 0
19.08.2019 01:00:00 7,2 6,9 18 10 25 13 SSE 4,5 0
19.08.2019 00:00:00 8,1 6,4 9 5 17 9 SE 45 0
18.08.2019 23:00:00 8,4 6,0 16 8 19 10 SE 57 0
18.08.2019 22:00:00 9,7 5,5 11 6 24 13 SW 75 0
18.08.2019 21:00:00 9,9 5,0 18 10 28 15 SW 75 18
18.08.2019 20:00:00 11,0 6,0 14 7 22 12 SW 66 60
18.08.2019 19:00:00 11,2 6,7 8 4 20 11 S 70 20
18.08.2019 18:00:00 10,0 6,6 16 8 26 14 SE 60 -
18.08.2019 17:00:00 9,9 6,5 21 11 27 15 ESE 53 -
18.08.2019 16:00:00 10,8 5,9 16 9 24 13 ESE 51 -
18.08.2019 15:00:00 11,4 4,7 14 8 23 12 SE 75 -
18.08.2019 14:00:00 10,7 3,2 14 8 26 14 SE 75 -
18.08.2019 13:00:00 11,7 2,2 9 5 27 15 SSE 64 -
18.08.2019 12:00:00 11,0 0,8 15 8 44 24 SSW 75 -
18.08.2019 11:00:00 9,4 -0,4 29 16 51 28 SW 75 -
18.08.2019 10:00:00 8,6 -0,6 33 18 53 29 SW 75 -
18.08.2019 09:00:00 8,4 -1,0 29 16 53 29 WSW 75 -
18.08.2019 08:00:00 8,0 -0,8 34 18 56 31 SW 75 -
18.08.2019 07:00:00 7,3 -0,6 39 21 62 34 SW 75 -
18.08.2019 06:00:00 7,1 -0,2 37 20 66 36 WSW 75 -
18.08.2019 05:00:00 6,8 0,4 34 18 60 32 WSW 75 -
18.08.2019 04:00:00 6,8 1,2 36 19 67 36 WSW 75 -
18.08.2019 03:00:00 6,8 1,8 34 18 64 34 WSW 75 -
18.08.2019 02:00:00 6,9 1,2 36 20 67 36 WSW 75 -
18.08.2019 01:00:00 6,5 1,2 35 19 60 32 WSW 75 -
18.08.2019 00:00:00 6,4 1,0 32 17 55 30 WSW 75 -
17.08.2019 23:00:00 6,1 0,8 28 15 44 24 WSW 75 -
17.08.2019 22:00:00 6,5 0,7 23 13 51 28 WSW 75 -
17.08.2019 21:00:00 6,6 0,6 34 19 61 33 WSW 75 -
17.08.2019 20:00:00 5,5 0,9 16 9 45 24 WNW 53 -
17.08.2019 19:00:00 6,7 -0,9 29 16 54 29 WSW 75 -
17.08.2019 18:00:00 6,7 -0,9 31 17 57 31 WSW 47 -
17.08.2019 17:00:00 7,0 -2,6 32 17 64 35 WSW 75 -
17.08.2019 16:00:00 6,6 -2,5 36 20 64 35 WSW 45 -
17.08.2019 15:00:00 6,6 -2,3 26 14 39 21 SW 75 -
17.08.2019 14:00:00 6,5 -2,0 23 12 46 25 WSW 75 -
17.08.2019 13:00:00 6,5 -1,8 30 16 48 26 WSW 65 -
17.08.2019 12:00:00 5,9 -4,0 21 12 40 21 WSW 75 -
17.08.2019 11:00:00 4,8 -5,1 20 11 49 26 W 56 -
17.08.2019 10:00:00 4,0 -5,3 20 11 50 27 W 75 -
17.08.2019 09:00:00 4,0 -5,7 28 15 58 32 WSW 75 -
17.08.2019 08:00:00 3,7 -5,8 26 14 57 31 W 75 -
17.08.2019 07:00:00 3,3 -5,3 30 16 57 31 WSW 69 -
17.08.2019 06:00:00 3,7 -6,0 29 16 56 30 WSW 75 -
17.08.2019 05:00:00 3,1 -6,6 22 12 48 26 W 75 -
17.08.2019 04:00:00 2,9 -5,8 24 13 50 27 W 70 -
17.08.2019 03:00:00 3,2 -6,8 34 18 63 34 WSW 75 -
17.08.2019 02:00:00 3,4 -9,2 48 26 61 33 WSW 75 -
17.08.2019 01:00:00 3,0 -7,8 36 20 68 37 WSW 75 -
17.08.2019 00:00:00 3,4 -12,4 40 22 74 40 WSW 75 -
16.08.2019 23:00:00 3,5 -10,9 45 24 63 34 WSW 75 -
16.08.2019 22:00:00 2,7 -4,5 40 21 56 30 WSW 75 -
16.08.2019 21:00:00 2,2 -1,3 23 12 37 20 WSW 75 -
16.08.2019 20:00:00 2,7 -0,7 24 13 43 23 WSW 75 -
16.08.2019 19:00:00 2,9 1,5 31 17 50 27 WSW 1,3 -
16.08.2019 18:00:00 2,9 2,5 19 10 30 16 SW 0,1 -
16.08.2019 17:00:00 2,1 0,7 11 6 27 15 S 0,2 -
16.08.2019 16:00:00 1,9 0,8 16 8 27 14 SSE 0,2 -
16.08.2019 15:00:00 1,2 0,7 10 6 20 11 SSE 0,7 -
16.08.2019 14:00:00 1,3 -0,2 8 4 16 9 SW 47 -
16.08.2019 13:00:00 -0,1 -0,9 10 5 20 11 WSW 0,7 -
16.08.2019 12:00:00 -0,5 -1,0 8 4 26 14 W 0,1 -
16.08.2019 11:00:00 -1,2 -1,6 10 6 33 18 WNW 0,1 -
16.08.2019 10:00:00 -1,0 -1,2 14 7 29 15 WSW 0,1 -
16.08.2019 09:00:00 -1,3 -1,3 16 8 36 20 W - 0
16.08.2019 08:00:00 -1,6 -1,6 11 6 27 15 NW 0,1 0
16.08.2019 07:00:00 -1,7 -1,8 19 10 34 19 NNW - 0
16.08.2019 06:00:00 -1,3 -1,4 17 9 39 21 NNW - 0
16.08.2019 05:00:00 -1,3 -1,5 27 15 51 28 NNW - 0
16.08.2019 04:00:00 -1,0 -1,1 18 10 40 22 NW 0,1 0
16.08.2019 03:00:00 -0,7 -0,8 27 14 47 26 NW - 0
16.08.2019 02:00:00 -1,3 -1,4 26 14 45 24 NNW - 0
16.08.2019 01:00:00 0,0 0,0 20 11 50 27 NNW - 0
16.08.2019 00:00:00 0,1 0,0 27 15 55 30 NW - 0
15.08.2019 23:00:00 0,1 0,1 21 11 42 23 NNW - 0
15.08.2019 22:00:00 0,0 0,0 14 8 45 24 NNW 0,1 0
15.08.2019 21:00:00 0,6 0,6 27 14 61 33 NNW - 0
15.08.2019 20:00:00 1,0 1,0 26 14 68 37 WNW - 0
15.08.2019 19:00:00 1,3 1,3 22 12 53 29 W - 0
15.08.2019 18:00:00 1,1 1,1 25 13 50 27 WSW 0,2 0
15.08.2019 17:00:00 1,8 1,8 22 12 41 22 NW - 2
15.08.2019 16:00:00 1,4 1,4 19 10 67 36 W - 0
15.08.2019 15:00:00 1,8 1,7 17 9 41 22 W - 0
15.08.2019 14:00:00 2,2 0,4 18 10 58 31 WSW 57 30
15.08.2019 13:00:00 2,0 -1,1 29 16 50 27 SW 75 7
15.08.2019 12:00:00 2,6 -2,5 19 10 37 20 SW 75 27
15.08.2019 11:00:00 2,5 -3,0 25 13 48 26 WSW 75 60
15.08.2019 10:00:00 1,3 -4,1 28 15 53 29 WSW 65 56
15.08.2019 09:00:00 0,9 -4,8 32 18 49 27 WSW 75 58
15.08.2019 08:00:00 0,9 -5,1 27 15 46 25 WSW 75 60
15.08.2019 07:00:00 0,8 -5,5 25 13 49 26 WSW 75 36
15.08.2019 06:00:00 0,4 -5,3 26 14 45 24 WSW 75 0
15.08.2019 05:00:00 0,2 -5,1 23 13 49 27 WSW 75 0
15.08.2019 04:00:00 0,4 -5,3 16 9 41 22 W 75 0
15.08.2019 03:00:00 0,2 -5,6 22 12 45 25 WSW 75 0
15.08.2019 02:00:00 0,0 -7,4 26 14 51 27 WSW 75 0
15.08.2019 01:00:00 -0,2 -6,1 32 17 52 28 WSW 75 0
15.08.2019 00:00:00 -0,6 -5,1 35 19 56 30 WSW 75 0
14.08.2019 23:00:00 -1,0 -2,7 28 15 44 24 WSW 72 0
14.08.2019 22:00:00 -0,8 -1,2 27 15 45 24 WSW 1,1 0
14.08.2019 21:00:00 -0,4 -0,5 24 13 36 19 WSW - 0
14.08.2019 20:00:00 -0,2 -0,3 14 8 32 17 W - 3
14.08.2019 19:00:00 0,0 -0,5 7 4 23 13 WNW - 14
14.08.2019 18:00:00 0,5 -0,3 7 4 28 15 WSW - 13
14.08.2019 17:00:00 0,1 -0,4 10 6 26 14 W - 16
14.08.2019 16:00:00 -0,2 -1,0 8 5 28 15 SW 0,1 24
14.08.2019 15:00:00 -0,2 -2,2 12 6 23 12 SW 45 30
14.08.2019 14:00:00 -0,7 -1,9 8 5 19 10 SW 41 15
14.08.2019 13:00:00 -1,3 -1,8 7 4 14 7 W - 29
14.08.2019 12:00:00 -1,2 -2,5 7 4 25 13 SSW 60 43
14.08.2019 11:00:00 -2,7 -3,5 6 3 19 10 WNW 1,3 59
14.08.2019 10:00:00 -3,9 -6,7 8 4 13 7 N 75 59
14.08.2019 09:00:00 -5,0 -7,6 8 4 19 10 NNW 75 60
14.08.2019 08:00:00 -4,5 -5,7 16 9 25 14 WNW 72 35
14.08.2019 07:00:00 -3,6 -3,9 14 8 25 13 W - 0
14.08.2019 06:00:00 -3,2 -3,6 14 8 22 12 NNW - 0

tt = temperature
td = dewpoint
ff = wind speed
fx = gusts
dd = wind direction
vv = visibility
sd = sunshine duration

Next stations